This is the latest recevied weather packets stored in our database for station/object KD9ZDW. If no packets are shown the sender has not sent any weather packets the latest 10 day(s).
| Time | Temp. | Humidity | Pressure | Rain* | Wind** | Luminosity | Snow |
|---|---|---|---|---|---|---|---|
| 1777907019 | 17.22° C | 58% | 1007.8 hPa | 0 mm | - | 524 W/m² | - |
| 1777906717 | 17.78° C | 59% | 1007.7 hPa | 0 mm | - | 112 W/m² | - |
| 1777906413 | 17.78° C | 60% | 1007.7 hPa | 0 mm | - | 118 W/m² | - |
| 1777906110 | 17.78° C | 61% | 1007.8 hPa | 0 mm | - | 120 W/m² | - |
| 1777905806 | 17.78° C | 61% | 1008 hPa | 0 mm | - | 128 W/m² | - |
| 1777905504 | 16.67° C | 65% | 1008.1 hPa | 0 mm | - | 297 W/m² | - |
| 1777905200 | 16.67° C | 62% | 1008.1 hPa | 0 mm | - | 144 W/m² | - |
| 1777904898 | 16.67° C | 63% | 1007.9 hPa | 0 mm | - | 86 W/m² | - |
| 1777904595 | 16.11° C | 64% | 1007.9 hPa | 0 mm | - | 249 W/m² | - |
| 1777904292 | 16.11° C | 64% | 1008 hPa | 0 mm | - | 111 W/m² | - |
| 1777903989 | 15.56° C | 66% | 1008.2 hPa | 0 mm | - | 169 W/m² | - |
| 1777903686 | 16.11° C | 64% | 1008.2 hPa | 0 mm | - | 121 W/m² | - |
| 1777903382 | 15.56° C | 65% | 1008.3 hPa | 0 mm | - | 226 W/m² | - |
| 1777903078 | 15.56° C | 66% | 1008.3 hPa | 0 mm | - | 60 W/m² | - |
| 1777902775 | 15° C | 65% | 1008.2 hPa | 0 mm | - | 286 W/m² | - |
| 1777902473 | 15° C | 66% | 1008.5 hPa | 0 mm | - | 142 W/m² | - |
| 1777902169 | 15° C | 67% | 1008.5 hPa | 0 mm | - | 125 W/m² | - |
| 1777901867 | 15° C | 66% | 1008.2 hPa | 0 mm | - | 192 W/m² | - |
| 1777901564 | 14.44° C | 67% | 1008.3 hPa | 0 mm | - | 126 W/m² | - |
| 1777901262 | 13.89° C | 67% | 1008.4 hPa | 0 mm | - | 310 W/m² | - |
| 1777900959 | 13.89° C | 68% | 1008.4 hPa | 0 mm | - | 291 W/m² | - |
| 1777900656 | 13.89° C | 68% | 1008.4 hPa | 0 mm | - | 186 W/m² | - |
| 1777900353 | 13.33° C | 68% | 1008.4 hPa | 0 mm | - | 211 W/m² | - |
| 1777900050 | 13.33° C | 69% | 1008.4 hPa | 0 mm | - | 94 W/m² | - |
| 1777899746 | 13.33° C | 68% | 1008.5 hPa | 0 mm | - | 196 W/m² | - |
* Rain latest hour (hover to see other rain measurements)
** Current wind speed in m/s (hover to see current wind gust speed)